createdAt,value
2018-04-14T00:06:20.588Z,92.47
2018-04-14T00:06:55.076Z,93.00
2018-04-14T00:07:28.791Z,89.30
2018-04-14T00:08:03.315Z,91.40
2018-04-14T00:08:37.046Z,90.45
2018-04-14T00:09:10.788Z,103.60
2018-04-14T00:09:45.294Z,98.00
2018-04-14T00:10:19.804Z,81.57
2018-04-14T00:10:54.289Z,92.03
2018-04-14T00:11:28.023Z,85.43
2018-04-14T00:12:01.483Z,96.87
2018-04-14T00:12:35.979Z,86.00
2018-04-14T00:13:10.461Z,83.50
2018-04-14T00:13:44.203Z,90.40
2018-04-14T00:14:17.926Z,95.47
2018-04-14T00:14:51.684Z,98.15
2018-04-14T00:15:26.195Z,93.97
2018-04-14T00:16:00.695Z,95.43
2018-04-14T00:16:34.859Z,89.15
2018-04-14T00:17:08.590Z,92.22
2018-04-14T00:17:43.121Z,94.28
2018-04-14T00:18:16.847Z,89.45
2018-04-14T00:18:50.568Z,91.05
2018-04-14T00:19:25.082Z,103.22
2018-04-14T00:19:59.588Z,93.62
2018-04-14T00:20:33.313Z,102.97
2018-04-14T00:21:07.045Z,103.45
2018-04-14T00:21:40.771Z,99.80
2018-04-14T00:22:14.509Z,100.40
2018-04-14T00:22:48.234Z,100.35
2018-04-14T00:23:21.956Z,114.05
2018-04-14T00:23:55.697Z,101.78
2018-04-14T00:24:30.955Z,104.63
2018-04-14T00:25:05.465Z,100.97
2018-04-14T00:25:39.959Z,91.40
2018-04-14T00:26:13.688Z,99.45
2018-04-14T00:26:47.429Z,92.78
2018-04-14T00:27:21.151Z,95.87
2018-04-14T00:27:55.649Z,102.25
2018-04-14T00:28:30.137Z,104.93
2018-04-14T00:29:03.867Z,95.25
2018-04-14T00:29:38.359Z,90.90
2018-04-14T00:30:12.883Z,100.35
2018-04-14T00:30:46.623Z,98.12
2018-04-14T00:31:20.360Z,91.95
2018-04-14T00:31:54.852Z,99.30
2018-04-14T00:32:29.353Z,98.03
2018-04-14T00:33:03.099Z,92.82
2018-04-14T00:33:36.820Z,95.87
2018-04-14T00:34:10.544Z,105.18
2018-04-14T00:34:45.047Z,99.60
2018-04-14T00:35:18.796Z,101.18
2018-04-14T00:35:52.536Z,97.80
2018-04-14T00:36:27.033Z,104.12
2018-04-14T00:37:00.782Z,97.28
2018-04-14T00:37:34.512Z,101.10
2018-04-14T00:38:08.239Z,112.00
2018-04-14T00:38:41.981Z,103.05
2018-04-14T00:39:16.388Z,98.10
2018-04-14T00:39:49.776Z,99.05
2018-04-14T00:40:23.540Z,101.65
2018-04-14T00:40:57.256Z,100.65
2018-04-14T00:41:30.994Z,106.37
2018-04-14T00:42:04.721Z,96.37
2018-04-14T00:42:38.444Z,99.57
2018-04-14T00:43:12.952Z,101.35
2018-04-14T00:43:47.444Z,103.78
2018-04-14T00:44:21.172Z,97.95
2018-04-14T00:44:54.930Z,100.40
2018-04-14T00:45:28.642Z,89.90
2018-04-14T00:46:03.167Z,95.55
2018-04-14T00:46:36.906Z,108.97
2018-04-14T00:47:10.632Z,106.97
2018-04-14T00:47:45.133Z,107.68
2018-04-14T00:48:18.876Z,111.22
2018-04-14T00:48:52.622Z,94.72
2018-04-14T00:49:26.533Z,103.60
2018-04-14T00:50:00.300Z,109.00
2018-04-14T00:50:34.068Z,97.12
2018-04-14T00:51:08.494Z,98.70
2018-04-14T00:51:42.225Z,100.45
2018-04-14T00:52:15.945Z,97.10
2018-04-14T00:52:49.685Z,96.15
2018-04-14T00:53:35.051Z,105.53
2018-04-14T00:54:09.542Z,108.32
2018-04-14T00:54:43.047Z,102.95
2018-04-14T00:55:17.332Z,98.65
2018-04-14T00:55:50.840Z,95.62
2018-04-14T00:56:24.778Z,99.53
2018-04-14T00:56:58.303Z,100.60
2018-04-14T00:57:32.795Z,99.20
2018-04-14T00:58:06.292Z,92.28
2018-04-14T00:58:39.788Z,94.93
2018-04-14T00:59:14.292Z,93.00
2018-04-14T00:59:48.792Z,107.22
2018-04-14T01:00:22.582Z,100.35
2018-04-14T01:00:55.980Z,92.88
2018-04-14T01:01:30.480Z,94.82
2018-04-14T01:02:04.212Z,92.78
2018-04-14T01:02:37.963Z,84.97
2018-04-14T01:03:11.698Z,100.00
2018-04-14T01:03:45.432Z,87.93
2018-04-14T01:04:19.160Z,93.32
2018-04-14T01:04:52.910Z,91.00
2018-04-14T01:05:26.675Z,88.25
2018-04-14T01:06:00.409Z,90.87
2018-04-14T01:06:34.894Z,85.28
2018-04-14T01:07:08.644Z,80.20
2018-04-14T01:07:42.379Z,87.90
2018-04-14T01:08:15.773Z,85.28
2018-04-14T01:08:49.494Z,85.18
2018-04-14T01:09:23.249Z,89.05
2018-04-14T01:09:56.977Z,82.88
2018-04-14T01:10:31.490Z,83.78
2018-04-14T01:11:04.874Z,80.50
2018-04-14T01:11:38.599Z,77.82
2018-04-14T01:12:12.323Z,78.12
2018-04-14T01:12:46.047Z,76.30
2018-04-14T01:13:19.783Z,80.57
2018-04-14T01:13:53.506Z,82.35
2018-04-14T01:14:27.998Z,74.68
2018-04-14T01:15:01.715Z,87.10
2018-04-14T01:15:36.250Z,84.45
2018-04-14T01:16:09.985Z,81.35
2018-04-14T01:16:43.756Z,75.93
2018-04-14T01:17:17.489Z,77.00
2018-04-14T01:17:51.999Z,77.87
2018-04-14T01:18:26.501Z,80.82
2018-04-14T01:18:59.955Z,78.37
2018-04-14T01:19:33.114Z,81.63
2018-04-14T01:20:06.850Z,72.18
2018-04-14T01:20:40.337Z,75.30
2018-04-14T01:21:14.068Z,79.95
2018-04-14T01:21:47.810Z,82.55
2018-04-14T01:22:21.542Z,72.32
2018-04-14T01:22:55.277Z,78.05
2018-04-14T01:23:28.678Z,76.55
2018-04-14T01:24:02.417Z,79.82
2018-04-14T01:24:35.916Z,71.25
2018-04-14T01:25:09.656Z,72.10
2018-04-14T01:25:43.546Z,83.75
2018-04-14T01:26:17.291Z,82.55
2018-04-14T01:26:51.027Z,73.90
2018-04-14T01:27:24.482Z,80.80
2018-04-14T01:27:58.205Z,74.53
2018-04-14T01:28:31.943Z,82.47
2018-04-14T01:29:05.844Z,79.18
2018-04-14T01:29:39.557Z,72.75
2018-04-14T01:30:13.287Z,78.97
2018-04-14T01:30:47.797Z,80.45
2018-04-14T01:31:22.302Z,74.03
2018-04-14T01:31:56.792Z,79.55
2018-04-14T01:32:30.555Z,69.15
2018-04-14T01:33:04.867Z,84.57
2018-04-14T01:33:38.595Z,77.95
2018-04-14T01:34:13.110Z,87.53
2018-04-14T01:34:46.578Z,73.40
2018-04-14T01:35:20.307Z,75.37
2018-04-14T01:35:54.050Z,86.50
2018-04-14T01:36:27.782Z,82.55
2018-04-14T01:37:01.237Z,84.03
2018-04-14T01:37:35.733Z,77.35
2018-04-14T01:38:09.464Z,76.22
2018-04-14T01:38:42.928Z,76.20
2018-04-14T01:39:16.384Z,68.50
2018-04-14T01:39:50.606Z,83.20
2018-04-14T01:40:24.348Z,79.10
2018-04-14T01:40:58.098Z,77.60
2018-04-14T01:41:32.375Z,71.05
2018-04-14T01:42:05.239Z,76.12
2018-04-14T01:42:38.748Z,73.18
2018-04-14T01:43:12.490Z,73.32
2018-04-14T01:43:46.226Z,72.87
2018-04-14T01:44:19.960Z,79.87
2018-04-14T01:44:53.424Z,62.80
2018-04-14T01:45:27.694Z,75.85
2018-04-14T01:46:01.448Z,73.60
2018-04-14T01:46:34.918Z,74.13
2018-04-14T01:47:08.642Z,78.18
2018-04-14T01:47:42.373Z,71.78
2018-04-14T01:48:16.863Z,81.43
2018-04-14T01:48:50.606Z,68.60
2018-04-14T01:49:24.059Z,77.27
2018-04-14T01:49:57.524Z,74.80
2018-04-14T01:50:31.256Z,72.70
2018-04-14T01:51:05.022Z,66.22
2018-04-14T01:51:38.476Z,73.13
2018-04-14T01:52:11.872Z,70.60
2018-04-14T01:52:45.340Z,73.23
2018-04-14T01:53:19.568Z,71.07
2018-04-14T01:53:53.298Z,67.95
2018-04-14T01:54:27.026Z,68.25
2018-04-14T01:55:00.472Z,71.73
2018-04-14T01:55:33.914Z,72.83
2018-04-14T01:56:07.660Z,72.40
2018-04-14T01:56:41.406Z,75.53
2018-04-14T01:57:14.849Z,65.80
2018-04-14T01:57:48.591Z,71.00
2018-04-14T01:58:23.282Z,68.57
2018-04-14T01:58:57.012Z,66.35
2018-04-14T01:59:30.466Z,76.40
2018-04-14T02:00:03.528Z,73.72
2018-04-14T02:00:37.421Z,66.60
2018-04-14T02:01:11.658Z,72.53
2018-04-14T02:01:46.166Z,70.37
2018-04-14T02:02:19.636Z,78.77
2018-04-14T02:02:54.142Z,68.70
2018-04-14T02:03:27.586Z,73.80
2018-04-14T02:04:01.041Z,77.30
2018-04-14T02:04:34.511Z,71.50
2018-04-14T02:05:07.632Z,77.27
2018-04-14T02:05:41.100Z,74.23
2018-04-14T02:06:14.575Z,74.47
2018-04-14T02:06:47.695Z,66.20
2018-04-14T02:07:21.424Z,68.87
2018-04-14T02:07:54.893Z,75.53
2018-04-14T02:08:28.619Z,72.95
2018-04-14T02:09:02.024Z,66.80
2018-04-14T02:09:35.492Z,72.53
2018-04-14T02:10:08.949Z,73.50
2018-04-14T02:10:42.400Z,70.23
2018-04-14T02:11:15.929Z,72.43
2018-04-14T02:11:50.196Z,76.55
2018-04-14T02:12:24.227Z,67.73
2018-04-14T02:12:58.731Z,82.22
2018-04-14T02:13:33.222Z,73.03
2018-04-14T02:14:06.675Z,80.63
2018-04-14T02:14:40.141Z,71.37
2018-04-14T02:15:13.591Z,74.13
2018-04-14T02:15:48.101Z,73.00
2018-04-14T02:16:21.599Z,74.73
2018-04-14T02:16:55.328Z,72.05
2018-04-14T02:17:28.818Z,66.63
2018-04-14T02:18:02.556Z,81.22
2018-04-14T02:18:37.756Z,69.80
2018-04-14T02:19:11.494Z,72.00
2018-04-14T02:19:45.240Z,68.70
2018-04-14T02:20:18.707Z,80.17
2018-04-14T02:20:52.430Z,78.15
2018-04-14T02:21:25.919Z,74.63
2018-04-14T02:21:59.379Z,78.70
2018-04-14T02:22:33.119Z,80.00
2018-04-14T02:23:06.579Z,81.80
2018-04-14T02:23:41.132Z,83.82
2018-04-14T02:24:14.865Z,76.70
2018-04-14T02:24:48.591Z,82.80
2018-04-14T02:25:22.058Z,81.43
2018-04-14T02:25:56.566Z,89.65
2018-04-14T02:26:30.044Z,83.20
2018-04-14T02:27:04.557Z,78.35
2018-04-14T02:27:38.019Z,84.53
2018-04-14T02:28:12.263Z,82.20
2018-04-14T02:28:45.728Z,79.83
2018-04-14T02:29:20.227Z,81.03
2018-04-14T02:29:53.959Z,77.10
2018-04-14T02:30:27.691Z,74.47
2018-04-14T02:31:01.174Z,77.27
2018-04-14T02:31:35.464Z,68.80
2018-04-14T02:32:08.917Z,84.13
2018-04-14T02:32:42.392Z,80.00
2018-04-14T02:33:16.128Z,74.70
2018-04-14T02:33:50.354Z,81.63
2018-04-14T02:34:23.860Z,65.87
2018-04-14T02:34:58.346Z,78.37
2018-04-14T02:35:32.569Z,76.43
2018-04-14T02:36:06.030Z,72.03
2018-04-14T02:36:40.296Z,79.27
2018-04-14T02:37:13.520Z,68.53
2018-04-14T02:37:47.267Z,67.93
2018-04-14T02:38:21.006Z,73.85
2018-04-14T02:38:54.458Z,68.70
2018-04-14T02:39:28.706Z,81.63
2018-04-14T02:40:03.223Z,79.60
2018-04-14T02:40:36.684Z,73.53
2018-04-14T02:41:10.430Z,73.97
2018-04-14T02:41:44.014Z,71.37
2018-04-14T02:42:17.252Z,76.43
2018-04-14T02:42:50.733Z,72.30
2018-04-14T02:43:24.206Z,79.33
2018-04-14T02:43:58.422Z,70.30
2018-04-14T02:44:31.889Z,70.53
2018-04-14T02:45:06.116Z,81.80
2018-04-14T02:45:39.573Z,69.23
2018-04-14T02:46:13.800Z,79.47
2018-04-14T02:46:47.288Z,83.47
2018-04-14T02:47:20.751Z,68.70
2018-04-14T02:47:54.977Z,77.13
2018-04-14T02:48:28.442Z,71.07
2018-04-14T02:49:01.898Z,76.57
2018-04-14T02:49:36.124Z,98.63
2018-04-14T02:50:10.354Z,74.13
2018-04-14T02:50:43.843Z,79.40
2018-04-14T02:51:17.596Z,88.28
2018-04-14T02:51:51.830Z,87.23
2018-04-14T02:52:25.290Z,89.87
2018-04-14T02:52:58.760Z,93.87
2018-04-14T02:53:33.000Z,89.17
2018-04-14T02:54:06.454Z,91.17
2018-04-14T02:54:40.184Z,94.87
2018-04-14T02:55:13.635Z,88.70
2018-04-14T02:55:47.860Z,90.67
2018-04-14T02:56:21.322Z,86.40
2018-04-14T02:56:55.554Z,82.00
2018-04-14T02:57:29.008Z,87.17
2018-04-14T02:58:03.227Z,90.93
2018-04-14T02:58:36.693Z,92.90
2018-04-14T02:59:10.960Z,86.77
2018-04-14T02:59:44.642Z,87.00
2018-04-14T03:00:18.451Z,87.53
2018-04-14T03:00:52.804Z,90.23
2018-04-14T03:01:26.974Z,89.32
2018-04-14T03:02:00.446Z,96.80
2018-04-14T03:02:33.892Z,86.97
2018-04-14T03:03:07.347Z,97.50
2018-04-14T03:03:40.805Z,94.17
2018-04-14T03:46:01.663Z,55.35
2018-04-14T03:46:35.083Z,53.33
2018-04-14T03:47:08.827Z,61.00
2018-04-14T03:47:42.550Z,59.90
2018-04-14T03:48:16.296Z,57.33
2018-04-14T03:48:50.028Z,64.18
2018-04-14T03:49:23.769Z,66.32
2018-04-14T03:49:57.000Z,57.83
2018-04-14T03:50:30.730Z,60.72
2018-04-14T03:51:04.200Z,55.80
2018-04-14T03:51:37.930Z,65.70
2018-04-14T03:52:11.651Z,56.60
2018-04-14T03:52:45.378Z,55.05
2018-04-14T03:53:18.854Z,64.20
2018-04-14T03:53:52.583Z,51.90
2018-04-14T03:54:26.331Z,57.78
2018-04-14T03:55:00.246Z,56.33
2018-04-14T03:55:33.704Z,54.63
2018-04-14T03:56:07.436Z,54.70
2018-04-14T03:56:41.934Z,55.03
2018-04-14T03:57:15.400Z,53.47
2018-04-14T03:57:48.870Z,51.10
2018-04-14T03:58:23.104Z,52.60
2018-04-14T03:58:56.558Z,46.17
2018-04-14T03:59:30.794Z,53.40
2018-04-14T04:00:03.600Z,46.63
2018-04-14T04:00:37.056Z,51.30
2018-04-14T04:01:10.516Z,47.73
2018-04-14T04:01:43.998Z,52.60
2018-04-14T04:02:18.222Z,45.20
2018-04-14T04:02:51.719Z,51.37
2018-04-14T04:03:25.184Z,49.67
2018-04-14T04:03:58.312Z,50.10
2018-04-14T04:04:31.779Z,44.20
2018-04-14T04:05:05.228Z,45.60
2018-04-14T04:05:38.696Z,49.23
2018-04-14T04:06:12.934Z,42.00
2018-04-14T04:06:46.412Z,40.63
2018-04-14T04:07:19.875Z,45.77
2018-04-14T04:07:53.376Z,40.80
2018-04-14T04:08:26.838Z,55.90
2018-04-14T04:09:00.740Z,46.93
2018-04-14T04:09:34.194Z,41.63
2018-04-14T04:10:07.655Z,46.17
2018-04-14T04:10:41.108Z,41.37
2018-04-14T04:11:14.566Z,44.70
2018-04-14T04:11:48.790Z,45.37
2018-04-14T04:12:22.260Z,46.80
2018-04-14T04:12:55.764Z,45.97
2018-04-14T04:13:28.896Z,50.37
2018-04-14T04:14:02.360Z,48.77
2018-04-14T04:14:35.821Z,48.77
2018-04-14T04:15:09.292Z,45.50
2018-04-14T04:15:42.818Z,44.77
2018-04-14T04:16:17.185Z,43.83
2018-04-14T04:16:50.653Z,40.93
2018-04-14T04:17:24.110Z,41.90
2018-04-14T04:17:57.622Z,42.40
2018-04-14T04:18:42.352Z,46.27
2018-04-14T04:19:27.004Z,45.95
2018-04-14T04:20:12.517Z,41.53
2018-04-14T04:20:57.142Z,40.83
2018-04-14T04:21:41.712Z,41.27
2018-04-14T04:22:26.304Z,41.83
2018-04-14T04:23:20.621Z,38.47
2018-04-14T04:24:05.256Z,41.80
2018-04-14T04:24:49.834Z,38.97
2018-04-14T04:25:30.118Z,43.00
2018-04-14T04:26:03.841Z,36.55
2018-04-14T04:26:37.301Z,40.60
2018-04-14T04:27:11.518Z,43.27
2018-04-14T04:27:44.969Z,45.67
2018-04-14T04:28:18.446Z,37.63
2018-04-14T04:28:52.185Z,41.75
2018-04-14T04:29:25.648Z,37.30
2018-04-14T04:29:59.646Z,39.10
2018-04-14T04:30:33.869Z,43.70
2018-04-14T04:31:07.332Z,40.00
2018-04-14T04:31:40.802Z,35.53
2018-04-14T04:32:15.041Z,37.33
2018-04-14T04:32:48.285Z,40.00
2018-04-14T04:33:21.774Z,36.50
2018-04-14T04:33:56.003Z,36.30
2018-04-14T04:34:29.463Z,37.00
2018-04-14T04:35:03.705Z,36.47
2018-04-14T04:35:37.158Z,38.37
2018-04-14T04:36:11.384Z,38.40
2018-04-14T04:36:44.844Z,38.40
2018-04-14T04:37:19.071Z,36.07
2018-04-14T04:37:52.529Z,40.50
2018-04-14T04:38:26.273Z,35.97
2018-04-14T04:38:59.741Z,38.40
2018-04-14T04:39:33.217Z,34.90
2018-04-14T04:40:06.689Z,34.13
2018-04-14T04:40:40.167Z,37.53
2018-04-14T04:41:13.630Z,33.50
2018-04-14T04:41:47.861Z,34.37
2018-04-14T04:42:21.320Z,34.20
2018-04-14T04:42:55.053Z,34.47
2018-04-14T04:43:28.541Z,33.13
2018-04-14T04:44:02.008Z,33.00
2018-04-14T04:44:35.467Z,33.00
2018-04-14T04:45:08.915Z,44.67
2018-04-14T04:45:42.378Z,32.20
2018-04-14T04:46:15.839Z,30.03
2018-04-14T04:46:49.571Z,30.55
2018-04-14T04:47:23.038Z,33.10
2018-04-14T04:47:57.548Z,35.15
2018-04-14T04:48:31.050Z,32.43
2018-04-14T04:49:04.515Z,29.20
2018-04-14T04:49:37.979Z,30.63
2018-04-14T04:50:11.429Z,29.53
2018-04-14T04:50:44.883Z,29.37
2018-04-14T04:51:18.359Z,26.87
2018-04-14T04:51:51.817Z,30.10
2018-04-14T04:52:25.289Z,26.70
2018-04-14T04:52:59.511Z,30.97
2018-04-14T04:53:33.011Z,25.43
2018-04-14T04:54:06.473Z,29.03
2018-04-14T04:54:40.697Z,32.30
2018-04-14T04:55:14.143Z,25.33
2018-04-14T04:55:48.359Z,27.83
2018-04-14T04:56:22.087Z,26.02
2018-04-14T04:56:55.538Z,32.80
2018-04-14T04:57:28.780Z,28.20
2018-04-14T04:58:02.531Z,26.30
2018-04-14T04:58:36.634Z,27.93
2018-04-14T04:59:09.874Z,26.50
2018-04-14T04:59:43.875Z,26.80
2018-04-14T05:00:18.117Z,29.23
2018-04-14T05:00:51.581Z,28.97
2018-04-14T05:01:25.053Z,26.43
2018-04-14T05:01:58.276Z,27.80
2018-04-14T05:02:31.515Z,26.40
2018-04-14T05:03:05.756Z,28.00
2018-04-14T05:03:39.259Z,28.20
2018-04-14T05:04:12.719Z,24.30
2018-04-14T05:04:46.169Z,26.60
2018-04-14T05:05:20.380Z,24.73
2018-04-14T05:05:53.829Z,26.83
2018-04-14T05:06:27.287Z,29.00
2018-04-14T05:07:00.741Z,24.80
2018-04-14T05:07:34.201Z,25.87
2018-04-14T05:08:08.433Z,26.23
2018-04-14T05:08:41.928Z,24.13
2018-04-14T05:09:15.381Z,27.53
2018-04-14T05:09:49.611Z,23.77
2018-04-14T05:10:23.067Z,24.00
2018-04-14T05:10:57.291Z,25.83
2018-04-14T05:11:31.787Z,27.50
2018-04-14T05:12:05.241Z,25.20
2018-04-14T05:12:38.960Z,22.58
2018-04-14T05:13:12.409Z,26.07
2018-04-14T05:13:46.150Z,25.50
2018-04-14T05:14:19.611Z,27.47
2018-04-14T05:14:53.329Z,22.52
2018-04-14T05:15:27.813Z,25.10
2018-04-14T05:16:01.269Z,26.57
2018-04-14T05:16:34.721Z,26.50
2018-04-14T05:17:08.171Z,25.10
2018-04-14T05:17:41.639Z,25.13
2018-04-14T05:18:15.857Z,25.40
2018-04-14T05:18:49.321Z,26.70
2018-04-14T05:19:23.548Z,24.90
2018-04-14T05:19:56.997Z,29.23
2018-04-14T05:20:30.447Z,26.40
2018-04-14T05:21:03.903Z,24.90
2018-04-14T05:21:37.367Z,24.00
2018-04-14T05:22:11.600Z,26.87
2018-04-14T05:22:45.069Z,26.30
2018-04-14T05:23:18.521Z,26.93
2018-04-14T05:23:52.791Z,24.60
2018-04-14T05:24:26.024Z,27.57
2018-04-14T05:25:00.257Z,25.80
2018-04-14T05:25:33.743Z,25.87
2018-04-14T05:26:07.201Z,26.80
2018-04-14T05:26:40.667Z,27.87
2018-04-14T05:27:14.164Z,26.67
2018-04-14T05:27:48.381Z,26.47
2018-04-14T05:28:21.841Z,23.70
2018-04-14T05:28:55.321Z,25.00
2018-04-14T05:29:28.771Z,25.17
2018-04-14T05:30:02.223Z,27.93
2018-04-14T05:30:35.689Z,26.37
2018-04-14T05:31:09.901Z,32.47
2018-04-14T05:31:43.029Z,22.93
2018-04-14T05:32:16.485Z,22.57
2018-04-14T05:32:49.962Z,23.70
2018-04-14T05:33:23.415Z,25.50
2018-04-14T05:33:57.673Z,24.80
2018-04-14T05:34:31.133Z,23.93
2018-04-14T05:35:04.261Z,29.17
2018-04-14T05:35:37.717Z,24.30
2018-04-14T05:36:11.171Z,25.90
2018-04-14T05:36:44.625Z,23.40
2018-04-14T05:37:18.863Z,23.47
2018-04-14T05:37:52.319Z,24.50
2018-04-14T05:38:26.543Z,25.50
2018-04-14T05:39:00.034Z,26.30
2018-04-14T05:39:33.495Z,25.53
2018-04-14T05:40:07.730Z,23.90
2018-04-14T05:40:41.220Z,26.10
2018-04-14T05:41:14.677Z,22.37
2018-04-14T05:41:48.153Z,22.57
2018-04-14T05:42:22.394Z,23.57
2018-04-14T05:42:55.853Z,22.70
2018-04-14T05:43:29.324Z,21.43
2018-04-14T05:44:03.577Z,21.70
2018-04-14T05:44:37.043Z,22.87
2018-04-14T05:45:10.509Z,21.07
2018-04-14T05:45:43.981Z,23.63
2018-04-14T05:46:18.215Z,23.00
2018-04-14T05:46:51.685Z,22.20
2018-04-14T05:47:25.139Z,21.87
2018-04-14T05:47:59.387Z,22.83
2018-04-14T05:48:32.877Z,21.17
2018-04-14T05:49:06.368Z,25.23
2018-04-14T05:49:39.839Z,22.10
2018-04-14T05:50:13.301Z,20.93
2018-04-14T05:50:46.775Z,21.60
2018-04-14T05:51:21.011Z,21.67
2018-04-14T05:51:54.481Z,20.57
2018-04-14T05:52:27.948Z,20.80
2018-04-14T05:53:02.170Z,21.70
2018-04-14T05:53:35.631Z,21.80
2018-04-14T05:54:09.873Z,18.97
2018-04-14T05:54:43.336Z,19.30
2018-04-14T05:55:16.798Z,19.50
2018-04-14T05:55:49.930Z,21.10
2018-04-14T05:56:23.399Z,19.43
2018-04-14T05:56:56.863Z,21.77
2018-04-14T05:57:31.092Z,21.70
2018-04-14T05:58:04.553Z,22.90
2018-04-14T05:58:38.768Z,19.30
2018-04-14T05:59:12.264Z,24.67
2018-04-14T05:59:45.720Z,20.93
2018-04-14T06:00:19.958Z,20.17
2018-04-14T06:00:53.427Z,20.23
2018-04-14T06:01:26.879Z,21.07
2018-04-14T06:02:01.116Z,20.70
2018-04-14T06:02:34.573Z,21.60
2018-04-14T06:03:08.800Z,20.37
2018-04-14T06:03:42.249Z,21.93
2018-04-14T06:04:15.509Z,22.03
2018-04-14T06:04:48.977Z,22.47
2018-04-14T06:05:22.433Z,21.87
2018-04-14T06:05:55.887Z,22.80
2018-04-14T06:06:29.343Z,20.83
2018-04-14T06:07:02.803Z,21.47
2018-04-14T06:07:36.253Z,22.03
2018-04-14T06:08:10.471Z,23.40
2018-04-14T06:08:43.943Z,20.87
2018-04-14T06:09:18.259Z,22.80
2018-04-14T06:09:51.850Z,20.13
2018-04-14T06:10:25.309Z,19.70
2018-04-14T06:10:59.539Z,22.40
2018-04-14T06:11:32.999Z,18.77
2018-04-14T06:12:07.233Z,18.50
2018-04-14T06:12:40.687Z,19.60
2018-04-14T06:13:14.917Z,21.80
2018-04-14T06:13:48.416Z,19.37
2018-04-14T06:14:21.894Z,20.50
2018-04-14T06:14:55.376Z,20.30
2018-04-14T06:15:28.831Z,20.60
2018-04-14T06:16:03.067Z,18.60
2018-04-14T06:16:36.517Z,24.60
2018-04-14T06:17:10.748Z,24.50
2018-04-14T06:17:44.214Z,21.90
2018-04-14T06:18:17.669Z,19.10
2018-04-14T06:18:51.129Z,19.47
2018-04-14T06:19:24.647Z,22.47
2018-04-14T06:19:58.101Z,19.77
2018-04-14T06:20:31.561Z,21.60
2018-04-14T06:21:05.009Z,23.00
2018-04-14T06:21:39.234Z,19.87
2018-04-14T06:22:12.718Z,21.97
2018-04-14T06:22:47.122Z,20.37
2018-04-14T06:23:20.575Z,22.60
2018-04-14T06:23:54.043Z,22.43
2018-04-14T06:24:27.297Z,20.93
2018-04-14T06:25:00.527Z,21.67
2018-04-14T06:25:34.537Z,25.80
2018-04-14T06:26:08.771Z,19.97
2018-04-14T06:26:41.903Z,21.30
2018-04-14T06:27:16.119Z,20.57
2018-04-14T06:27:50.345Z,22.40
2018-04-14T06:28:23.798Z,22.37
2018-04-14T06:28:58.017Z,20.93
2018-04-14T06:29:31.502Z,23.50
2018-04-14T06:30:04.341Z,25.50
2018-04-14T06:30:37.811Z,23.27
2018-04-14T06:31:11.263Z,23.50
2018-04-14T06:31:44.725Z,24.67
2018-04-14T06:32:18.185Z,24.30
2018-04-14T06:32:52.417Z,23.43
2018-04-14T06:33:25.904Z,27.43
2018-04-14T06:33:59.361Z,24.67
2018-04-14T06:34:33.597Z,24.37
2018-04-14T06:35:07.055Z,24.57
2018-04-14T06:35:41.293Z,23.33
2018-04-14T06:36:14.771Z,26.77
2018-04-14T06:36:48.220Z,26.23
2018-04-14T06:37:22.443Z,23.43
2018-04-14T06:37:55.895Z,22.43
2018-04-14T06:38:29.358Z,24.60
2018-04-14T06:39:02.810Z,26.33
2018-04-14T06:39:36.295Z,25.20
2018-04-14T06:40:09.751Z,30.70
2018-04-14T06:40:43.984Z,29.80
2018-04-14T06:41:17.456Z,28.33
2018-04-14T06:41:50.677Z,25.23
2018-04-14T06:42:23.945Z,26.67
2018-04-14T06:42:57.417Z,26.70
2018-04-14T06:43:30.863Z,26.27
2018-04-14T06:44:05.103Z,30.13
2018-04-14T06:44:38.770Z,27.97
2018-04-14T06:45:12.235Z,28.93
2018-04-14T06:45:46.460Z,29.27
2018-04-14T06:46:19.957Z,26.17
2018-04-14T06:46:54.141Z,29.53
2018-04-14T06:47:27.597Z,26.70
2018-04-14T06:48:01.058Z,27.13
2018-04-14T06:48:34.516Z,25.57
2018-04-14T06:49:07.971Z,26.90
2018-04-14T06:49:42.217Z,27.50
2018-04-14T06:50:15.673Z,27.50
2018-04-14T06:50:49.138Z,26.47
2018-04-14T06:51:23.381Z,28.13
2018-04-14T06:51:56.841Z,24.13
2018-04-14T06:52:30.299Z,32.77
2018-04-14T06:53:03.750Z,25.37
2018-04-14T06:53:37.209Z,25.50
2018-04-14T06:54:10.663Z,27.77
2018-04-14T06:54:44.905Z,26.43
2018-04-14T06:55:18.367Z,27.93
2018-04-14T06:55:51.837Z,26.57
2018-04-14T06:56:26.071Z,25.77
2018-04-14T06:56:59.541Z,27.50
2018-04-14T06:57:32.994Z,26.83
2018-04-14T06:58:06.446Z,24.63
2018-04-14T06:58:39.904Z,26.80
2018-04-14T06:59:13.375Z,26.60
2018-04-14T06:59:46.853Z,24.93
2018-04-14T07:00:21.082Z,27.13
2018-04-14T07:00:54.544Z,24.43
2018-04-14T07:01:28.767Z,25.50
2018-04-14T07:02:02.224Z,27.20
2018-04-14T07:02:36.457Z,27.87
2018-04-14T07:03:09.914Z,25.80
2018-04-14T07:03:44.140Z,25.20
2018-04-14T07:04:17.607Z,29.70
2018-04-14T07:04:51.102Z,26.47
2018-04-14T07:05:25.287Z,26.13
2018-04-14T07:05:59.275Z,26.50
2018-04-14T07:06:33.508Z,25.20
2018-04-14T07:07:06.968Z,26.80
2018-04-14T07:07:40.955Z,29.33
2018-04-14T07:08:14.947Z,24.83
2018-04-14T07:08:49.162Z,29.10
2018-04-14T07:09:23.391Z,28.47
2018-04-14T07:09:56.652Z,26.00
2018-04-14T07:10:30.867Z,28.00
2018-04-14T07:11:04.337Z,27.07
2018-04-14T07:11:38.564Z,28.60
2018-04-14T07:12:12.020Z,29.57
2018-04-14T07:12:46.252Z,27.57
2018-04-14T07:13:19.718Z,26.93
2018-04-14T07:13:52.943Z,31.03
2018-04-14T07:14:26.409Z,27.67
2018-04-14T07:14:59.886Z,26.23
2018-04-14T07:15:33.385Z,28.50
2018-04-14T07:16:06.850Z,27.47
2018-04-14T07:16:40.320Z,27.30
2018-04-14T07:17:13.787Z,27.10
2018-04-14T07:17:48.002Z,32.53
2018-04-14T07:18:22.224Z,26.57
2018-04-14T07:18:55.695Z,26.83
2018-04-14T07:19:29.158Z,28.00
2018-04-14T07:20:03.416Z,31.70
2018-04-14T07:20:36.904Z,27.77
2018-04-14T07:21:10.544Z,27.90
2018-04-14T07:21:44.782Z,26.63
2018-04-14T07:22:18.237Z,29.90
2018-04-14T07:22:52.469Z,26.17
2018-04-14T07:23:25.944Z,24.10
2018-04-14T07:24:00.631Z,30.63
2018-04-14T07:24:34.863Z,28.93
2018-04-14T07:25:08.405Z,27.50
2018-04-14T07:25:42.656Z,28.97
2018-04-14T07:26:16.120Z,28.40
2018-04-14T07:26:49.613Z,26.67
2018-04-14T07:27:23.233Z,26.77
2018-04-14T07:27:56.694Z,25.77
2018-04-14T07:28:30.168Z,22.53
2018-04-14T07:29:03.643Z,24.63
2018-04-14T07:29:37.875Z,24.73
2018-04-14T07:30:11.382Z,26.00
2018-04-14T07:30:44.858Z,24.50
2018-04-14T07:31:18.320Z,25.50
2018-04-14T07:31:51.792Z,24.80
2018-04-14T07:32:25.303Z,23.83
2018-04-14T07:32:59.702Z,24.87
2018-04-14T07:33:33.152Z,22.70
2018-04-14T07:34:07.368Z,24.10
2018-04-14T07:34:40.599Z,25.50
2018-04-14T07:35:14.080Z,23.43
2018-04-14T07:35:48.272Z,25.40
2018-04-14T07:36:21.737Z,24.53
2018-04-14T07:36:55.197Z,23.03
2018-04-14T07:37:29.454Z,26.57
2018-04-14T07:38:03.095Z,22.97
2018-04-14T07:38:36.565Z,25.07
2018-04-14T07:39:10.799Z,24.00
2018-04-14T07:39:44.053Z,25.70
2018-04-14T07:40:18.318Z,27.10
2018-04-14T07:40:51.781Z,27.03
2018-04-14T07:41:25.254Z,26.47
2018-04-14T07:41:58.707Z,24.13
2018-04-14T07:42:32.932Z,26.27
2018-04-14T07:43:06.394Z,23.53
2018-04-14T07:43:40.616Z,23.63
2018-04-14T07:44:14.602Z,23.60
2018-04-14T07:44:48.061Z,24.33
2018-04-14T07:45:21.555Z,25.33
2018-04-14T07:45:55.794Z,24.83
2018-04-14T07:46:29.262Z,25.90
2018-04-14T07:47:03.501Z,25.90
2018-04-14T07:47:36.958Z,28.00
2018-04-14T07:48:10.424Z,27.20
2018-04-14T07:48:44.642Z,22.77
2018-04-14T07:49:18.083Z,24.70
2018-04-14T07:49:51.533Z,23.63
2018-04-14T07:50:25.037Z,23.20
2018-04-14T07:50:58.494Z,25.80
2018-04-14T07:51:31.955Z,26.70
2018-04-14T07:52:06.200Z,23.50
2018-04-14T07:52:39.703Z,23.03
2018-04-14T07:53:13.323Z,27.70
2018-04-14T07:53:46.989Z,21.20
2018-04-14T07:54:20.451Z,23.57
2018-04-14T07:54:53.903Z,23.73
2018-04-14T07:55:27.409Z,27.20
2018-04-14T07:56:00.871Z,22.87
2018-04-14T07:56:34.331Z,23.53
2018-04-14T07:57:08.564Z,23.10
2018-04-14T07:57:41.798Z,20.10
2018-04-14T07:58:15.049Z,25.00
2018-04-14T07:58:48.529Z,23.00
2018-04-14T07:59:21.982Z,22.90
2018-04-14T07:59:55.436Z,23.47
2018-04-14T08:00:28.704Z,27.10
2018-04-14T08:01:02.162Z,21.07
2018-04-14T08:01:35.625Z,24.93
2018-04-14T08:02:09.093Z,23.10
2018-04-14T08:02:42.566Z,22.50
2018-04-14T08:03:16.566Z,22.10
2018-04-14T08:03:50.777Z,20.77